Time;durP1;ratioP1;P1;durP2;ratioP2;P2;SDS_P1;SDS_P2;PMS_P1;PMS_P2;Temp;Humidity;BMP_temperature;BMP_pressure;BME280_temperature;BME280_humidity;BME280_pressure;Samples;Min_cycle;Max_cycle;Signal;HPM_P1;HPM_P2
2021/12/05 00:19:09;;;;;;;68.60;34.03;;;;;;;5.53;64.70;99201.41;5114635;28;20118;-69
2021/12/05 00:21:41;;;;;;;64.68;33.40;;;;;;;5.45;64.28;99202.94;5114389;28;20063;-69
2021/12/05 00:24:15;;;;;;;65.70;34.70;;;;;;;5.69;63.59;99206.97;5114680;28;20137;-69
2021/12/05 00:26:46;;;;;;;72.05;37.03;;;;;;;5.90;63.41;99212.91;5114783;28;20046;-69
2021/12/05 00:29:38;;;;;;;74.95;35.45;;;;;;;6.27;61.95;99221.91;5114947;28;20142;-69
2021/12/05 00:32:13;;;;;;;74.93;36.58;;;;;;;5.70;63.59;99224.50;5115743;28;20464;-69
2021/12/05 00:35:11;;;;;;;66.57;35.08;;;;;;;6.11;62.67;99226.00;5114218;27;20040;-69
2021/12/05 00:40:50;;;;;;;61.00;36.10;;;;;;;5.81;63.23;99220.84;5112583;28;20082;-69
2021/12/05 00:46:22;;;;;;;70.15;34.35;;;;;;;5.69;63.68;99238.69;5113992;28;20063;-69
2021/12/05 00:54:41;;;;;;;66.60;37.42;;;;;;;5.57;64.05;99222.13;5113566;28;20063;-69
2021/12/05 01:03:02;;;;;;;72.97;37.63;;;;;;;5.65;63.93;99224.91;5055678;28;20119;-69
2021/12/05 01:06:01;;;;;;;74.03;37.72;;;;;;;5.46;64.53;99231.03;5054723;28;20563;-68
2021/12/05 01:08:36;;;;;;;65.00;33.95;;;;;;;5.07;65.66;99240.72;5054664;28;20057;-68
2021/12/05 01:16:08;;;;;;;77.25;36.97;;;;;;;5.61;64.14;99238.53;5054597;28;20064;-69
2021/12/05 01:18:35;;;;;;;69.80;37.25;;;;;;;6.10;62.48;99244.66;5054607;28;20051;-69
2021/12/05 01:21:08;;;;;;;73.88;39.17;;;;;;;6.21;62.80;99254.25;5054958;28;20136;-68
2021/12/05 01:26:54;;;;;;;73.18;37.70;;;;;;;5.95;63.06;99266.25;5054207;28;20049;-69
2021/12/05 01:34:35;;;;;;;70.43;38.60;;;;;;;6.14;62.60;99257.47;5096087;28;20078;-68
2021/12/05 01:37:30;;;;;;;70.18;35.60;;;;;;;5.30;64.68;99248.38;5116452;28;20104;-69
2021/12/05 01:40:12;;;;;;;65.57;35.92;;;;;;;5.41;64.71;99245.63;5116153;28;20074;-68
2021/12/05 01:43:17;;;;;;;74.20;39.03;;;;;;;5.93;63.32;99251.50;5116474;28;20066;-68
2021/12/05 01:48:59;;;;;;;67.43;37.88;;;;;;;6.21;62.34;99263.03;5114077;28;20043;-67
2021/12/05 01:56:57;;;;;;;77.72;40.20;;;;;;;6.49;61.54;99271.03;5116372;28;20055;-68
2021/12/05 02:16:04;;;;;;;69.50;37.63;;;;;;;6.34;62.00;99278.56;5115700;28;20048;-69
2021/12/05 02:30:02;;;;;;;68.15;35.53;;;;;;;6.14;62.12;99264.56;5114558;28;20458;-68
2021/12/05 02:37:49;;;;;;;62.08;34.25;;;;;;;5.99;63.50;99265.97;5115648;28;20122;-68
2021/12/05 02:40:49;;;;;;;70.00;35.08;;;;;;;6.02;62.64;99276.28;5114225;28;20119;-68
2021/12/05 02:43:10;;;;;;;68.23;36.93;;;;;;;6.32;62.48;99264.66;5114743;28;20039;-68
2021/12/05 02:45:41;;;;;;;69.07;35.58;;;;;;;6.51;61.47;99275.22;5115557;28;20071;-68
2021/12/05 02:48:08;;;;;;;70.50;37.33;;;;;;;6.95;60.32;99285.22;5097199;28;20043;-68
2021/12/05 02:50:36;;;;;;;76.38;39.17;;;;;;;7.15;60.05;99290.28;5115119;28;20122;-68
2021/12/05 02:53:27;;;;;;;71.97;38.05;;;;;;;7.29;59.69;99302.19;5114677;28;20446;-69
2021/12/05 02:55:54;;;;;;;68.43;36.00;;;;;;;7.43;58.90;99305.34;5115991;28;20074;-68
2021/12/05 03:03:24;;;;;;;64.28;33.88;;;;;;;6.76;60.22;99302.88;5115317;28;20471;-68
2021/12/05 03:05:59;;;;;;;63.28;35.47;;;;;;;6.78;61.25;99303.53;5115409;28;20060;-68
2021/12/05 03:08:25;;;;;;;66.97;35.20;;;;;;;6.53;61.32;99306.84;5114567;28;20059;-69
2021/12/05 03:10:55;;;;;;;74.07;38.17;;;;;;;6.83;60.74;99311.91;5115523;28;20044;-68
2021/12/05 03:13:22;;;;;;;65.68;34.65;;;;;;;6.71;61.03;99315.69;5116273;28;20044;-68
2021/12/05 03:15:49;;;;;;;73.15;37.72;;;;;;;6.66;60.87;99316.13;5115791;28;20078;-68
2021/12/05 03:18:16;;;;;;;67.20;36.25;;;;;;;6.75;60.65;99314.41;5115773;28;20079;-68
2021/12/05 03:20:43;;;;;;;70.15;35.78;;;;;;;6.48;61.74;99317.84;5114692;28;20123;-68
2021/12/05 03:23:10;;;;;;;72.38;37.13;;;;;;;6.40;61.66;99317.72;5115336;28;20071;-69
2021/12/05 03:25:37;;;;;;;68.25;38.45;;;;;;;6.75;61.20;99324.19;5115493;28;20225;-68
2021/12/05 03:28:04;;;;;;;66.32;37.50;;;;;;;6.49;61.32;99318.69;5115330;28;20051;-68
2021/12/05 03:30:31;;;;;;;69.95;38.60;;;;;;;6.59;61.03;99327.44;5115175;28;20075;-68
2021/12/05 03:32:57;;;;;;;73.30;38.97;;;;;;;7.02;60.03;99326.03;5114846;28;20130;-68
2021/12/05 03:35:28;;;;;;;74.97;39.30;;;;;;;7.13;59.65;99328.50;5116086;28;20118;-68
2021/12/05 03:37:58;;;;;;;78.05;39.22;;;;;;;7.38;58.79;99333.13;5115223;28;20036;-68
2021/12/05 03:40:28;;;;;;;71.18;38.47;;;;;;;6.95;60.11;99349.63;5115196;28;20118;-68
2021/12/05 03:42:56;;;;;;;73.03;38.35;;;;;;;7.20;59.23;99350.78;5115236;28;20067;-68
2021/12/05 03:45:28;;;;;;;71.78;39.30;;;;;;;7.53;58.45;99356.50;5115588;28;20074;-68
2021/12/05 03:47:57;;;;;;;73.22;38.85;;;;;;;7.71;58.09;99362.66;5115353;28;20126;-68
2021/12/05 03:50:25;;;;;;;74.68;39.20;;;;;;;7.62;58.76;99367.03;5115139;28;20123;-68
2021/12/05 03:52:53;;;;;;;75.82;40.13;;;;;;;7.77;58.48;99375.31;5114764;28;20073;-68
2021/12/05 03:55:20;;;;;;;71.68;39.22;;;;;;;7.62;58.72;99377.66;5114790;28;20352;-68
2021/12/05 03:57:47;;;;;;;67.25;37.50;;;;;;;6.94;59.97;99381.56;5114593;28;20059;-68
2021/12/05 04:00:27;;;;;;;68.38;37.17;;;;;;;7.09;60.14;99386.25;5114313;28;20559;-68
2021/12/05 04:02:55;;;;;;;71.18;38.03;;;;;;;6.87;59.88;99392.75;5097281;28;20058;-68
2021/12/05 04:05:22;;;;;;;70.63;37.22;;;;;;;7.52;58.45;99389.31;5113955;28;20126;-68
2021/12/05 04:07:49;;;;;;;80.60;39.00;;;;;;;7.59;58.36;99396.50;5097096;28;20060;-68
2021/12/05 04:10:16;;;;;;;70.82;37.05;;;;;;;7.29;58.69;99402.09;5096108;28;20479;-68
2021/12/05 04:12:43;;;;;;;68.03;37.80;;;;;;;7.69;58.04;99399.13;5115960;28;20050;-69
2021/12/05 04:15:11;;;;;;;71.47;36.13;;;;;;;7.80;58.03;99400.72;5115936;28;20047;-68
2021/12/05 04:17:39;;;;;;;69.97;38.03;;;;;;;7.73;58.03;99395.19;5115690;28;20067;-68
2021/12/05 04:20:08;;;;;;;68.45;36.35;;;;;;;7.35;59.10;99394.41;5114933;28;20061;-68
2021/12/05 04:22:35;;;;;;;67.18;34.78;;;;;;;7.27;58.78;99383.66;5114607;28;20217;-68
2021/12/05 04:25:07;;;;;;;70.43;36.13;;;;;;;7.40;59.06;99393.94;5114889;28;20039;-68
2021/12/05 04:27:34;;;;;;;63.13;35.70;;;;;;;7.51;58.37;99403.53;5115284;28;20099;-69
2021/12/05 04:30:00;;;;;;;72.82;37.22;;;;;;;7.77;58.13;99391.25;5115198;28;20063;-68
2021/12/05 04:32:27;;;;;;;68.18;38.03;;;;;;;7.77;57.97;99396.53;5114994;28;20063;-68
2021/12/05 04:34:53;;;;;;;65.22;36.17;;;;;;;7.81;58.05;99386.47;5118752;28;20067;-68
2021/12/05 04:37:20;;;;;;;68.18;37.05;;;;;;;7.86;57.64;99390.34;5118695;28;20063;-68
2021/12/05 04:39:46;;;;;;;66.20;36.72;;;;;;;7.80;57.89;99387.47;5117682;28;20479;-68
2021/12/05 04:42:14;;;;;;;66.57;35.83;;;;;;;8.03;57.31;99385.19;5116191;28;20126;-69
2021/12/05 04:44:41;;;;;;;68.82;37.08;;;;;;;8.05;57.40;99388.53;5118173;28;20048;-68
2021/12/05 04:47:09;;;;;;;61.65;35.00;;;;;;;8.01;57.53;99392.50;5118162;28;20166;-68
2021/12/05 04:49:39;;;;;;;60.92;35.45;;;;;;;7.97;57.91;99393.78;5118549;28;20391;-68
2021/12/05 04:52:08;;;;;;;68.43;35.67;;;;;;;8.03;57.45;99391.34;5118215;28;20551;-68
2021/12/05 04:54:34;;;;;;;61.80;34.75;;;;;;;7.97;57.70;99391.97;5117966;28;20071;-68
2021/12/05 04:57:02;;;;;;;56.28;32.03;;;;;;;7.99;57.24;99394.44;5117561;28;20067;-68
2021/12/05 04:59:34;;;;;;;67.00;35.67;;;;;;;7.85;57.79;99401.94;5117661;28;20063;-68
2021/12/05 05:02:03;;;;;;;63.40;34.22;;;;;;;7.67;58.42;99394.94;5118682;28;20043;-68
2021/12/05 05:04:36;;;;;;;63.35;33.95;;;;;;;7.44;58.57;99399.78;5118881;28;20501;-68
2021/12/05 05:07:10;;;;;;;62.83;33.65;;;;;;;7.49;58.30;99401.03;5118616;28;20047;-68
2021/12/05 05:09:36;;;;;;;68.95;35.63;;;;;;;7.58;58.16;99397.47;5117891;28;20048;-68
2021/12/05 05:12:03;;;;;;;69.93;35.63;;;;;;;7.51;58.55;99401.69;5118502;28;20460;-68
2021/12/05 05:14:30;;;;;;;69.15;34.75;;;;;;;7.49;58.52;99401.03;5118502;28;20139;-68
2021/12/05 05:16:56;;;;;;;70.07;36.88;;;;;;;7.26;59.00;99412.97;5119217;28;20035;-68
2021/12/05 05:19:28;;;;;;;71.50;36.03;;;;;;;7.25;58.78;99412.16;5119321;28;20050;-68
2021/12/05 05:22:08;;;;;;;72.35;35.78;;;;;;;7.20;59.06;99422.34;5118562;28;20135;-68
2021/12/05 05:45:58;;;;;;;73.85;38.03;;;;;;;8.04;57.63;99447.94;5118231;28;20044;-68
2021/12/05 05:50:59;;;;;;;75.00;38.17;;;;;;;7.93;57.56;99459.59;5117493;28;20141;-68
2021/12/05 05:53:25;;;;;;;75.63;37.08;;;;;;;7.91;57.13;99466.00;5116911;28;20098;-68
2021/12/05 05:55:54;;;;;;;75.95;36.90;;;;;;;8.02;57.58;99452.53;5117572;28;20527;-68
2021/12/05 05:58:25;;;;;;;76.30;38.20;;;;;;;8.12;57.07;99449.81;5117391;28;20452;-68
2021/12/05 06:01:07;;;;;;;78.47;37.38;;;;;;;8.19;57.09;99459.69;5117136;28;20118;-68
2021/12/05 06:03:34;;;;;;;80.03;38.17;;;;;;;8.15;57.22;99460.16;5116161;28;20475;-68
2021/12/05 06:06:04;;;;;;;78.20;38.42;;;;;;;8.25;56.68;99464.41;5116024;28;20077;-68
2021/12/05 06:08:34;;;;;;;86.05;42.13;;;;;;;8.21;56.88;99473.66;5116257;28;20067;-68
2021/12/05 06:11:05;;;;;;;89.05;42.25;;;;;;;7.61;58.66;99473.25;5116432;28;20043;-68
2021/12/05 06:13:33;;;;;;;87.60;41.83;;;;;;;7.39;59.03;99483.25;5114857;28;20113;-69
2021/12/05 06:16:00;;;;;;;93.97;44.70;;;;;;;7.53;58.79;99478.47;5115654;28;20078;-68
2021/12/05 06:18:26;;;;;;;89.28;42.00;;;;;;;7.46;58.66;99466.78;5117081;28;20047;-68
2021/12/05 06:20:53;;;;;;;90.78;41.65;;;;;;;7.67;58.51;99472.69;5116488;28;20066;-68
2021/12/05 06:23:20;;;;;;;91.28;41.60;;;;;;;7.78;58.32;99483.09;5115321;28;20039;-68
2021/12/05 06:25:50;;;;;;;99.03;43.92;;;;;;;7.98;57.61;99486.50;5116214;28;20127;-68
2021/12/05 06:28:25;;;;;;;100.47;44.75;;;;;;;7.88;57.73;99482.22;5115204;28;20092;-68
2021/12/05 06:41:57;;;;;;;103.25;43.05;;;;;;;8.24;57.13;99521.16;5115294;28;20052;-68
2021/12/05 06:47:11;;;;;;;106.32;44.03;;;;;;;8.20;56.98;99526.88;5116561;28;20532;-68
2021/12/05 06:49:39;;;;;;;109.75;45.08;;;;;;;7.86;58.30;99536.28;5115773;28;20210;-68
2021/12/05 06:52:07;;;;;;;100.28;42.83;;;;;;;7.57;58.57;99532.88;5116066;27;20043;-68
2021/12/05 06:54:39;;;;;;;100.32;44.03;;;;;;;7.32;59.88;99532.53;5116807;28;20091;-68
2021/12/05 06:57:07;;;;;;;96.05;42.33;;;;;;;7.37;59.81;99535.56;5116027;28;20047;-68
2021/12/05 06:59:38;;;;;;;106.10;43.67;;;;;;;7.12;59.90;99541.47;5117089;28;20074;-68
2021/12/05 07:02:05;;;;;;;74.32;32.60;;;;;;;7.17;60.05;99559.59;5116437;28;20059;-68
2021/12/05 07:05:10;;;;;;;102.47;45.30;;;;;;;6.96;60.43;99555.28;5115204;28;20449;-68
2021/12/05 07:07:37;;;;;;;115.65;51.55;;;;;;;6.26;62.63;99558.97;5115747;28;20130;-68
2021/12/05 07:10:07;;;;;;;118.53;51.22;;;;;;;5.95;63.29;99570.41;5113620;28;20040;-68
2021/12/05 07:13:17;;;;;;;128.32;53.08;;;;;;;5.66;64.45;99572.91;5115357;28;20076;-68
2021/12/05 07:15:51;;;;;;;127.45;52.22;;;;;;;6.32;62.89;99587.53;5117233;28;20071;-67
2021/12/05 07:21:12;;;;;;;138.38;54.08;;;;;;;6.18;62.93;99586.09;5115419;28;20131;-68
2021/12/05 07:40:27;;;;;;;157.23;59.53;;;;;;;6.87;61.25;99628.50;5115753;28;20088;-69
2021/12/05 07:43:03;;;;;;;169.98;60.80;;;;;;;7.30;60.22;99629.91;5116036;28;20092;-69
2021/12/05 07:45:37;;;;;;;160.02;61.72;;;;;;;7.37;60.19;99631.00;5116179;28;20064;-70
2021/12/05 07:48:21;;;;;;;166.85;59.58;;;;;;;7.70;58.96;99626.25;5115586;28;20445;-69
2021/12/05 07:53:31;;;;;;;166.35;62.03;;;;;;;7.80;58.89;99642.97;5115000;28;20066;-70
2021/12/05 07:56:06;;;;;;;159.85;57.67;;;;;;;7.45;59.44;99655.97;5115465;28;20044;-70
2021/12/05 08:14:20;;;;;;;146.95;59.65;;;;;;;7.67;58.71;99639.78;5114935;28;20048;-69
2021/12/05 08:15:11;;;;;;;136.45;55.00;;;;;;;6.55;61.69;99655.19;5119097;28;20073;-69
2021/12/05 08:17:39;;;;;;;141.73;54.40;;;;;;;6.27;62.92;99670.00;5119056;28;20051;-69
2021/12/05 08:20:10;;;;;;;147.63;56.03;;;;;;;6.62;62.11;99658.97;5119808;28;20071;-69
2021/12/05 08:22:37;;;;;;;152.50;56.72;;;;;;;7.09;60.71;99661.00;5119149;28;20036;-69
2021/12/05 08:25:10;;;;;;;153.93;57.60;;;;;;;6.83;60.76;99664.19;5117930;28;20040;-69
2021/12/05 08:27:41;;;;;;;148.32;56.72;;;;;;;6.94;61.33;99673.00;5119532;28;20051;-69
2021/12/05 08:30:12;;;;;;;147.70;59.08;;;;;;;7.41;59.80;99670.50;5118800;28;20483;-70
2021/12/05 08:33:11;;;;;;;147.65;57.85;;;;;;;7.46;59.39;99673.59;5118848;28;20089;-69
2021/12/05 09:08:34;;;;;;;147.93;55.00;;;;;;;6.59;61.78;99687.53;5119240;28;20075;-69
2021/12/05 09:19:27;;;;;;;149.48;55.50;;;;;;;6.75;60.96;99705.53;5116516;28;20044;-69
2021/12/05 09:25:18;;;;;;;137.50;50.38;;;;;;;6.56;61.79;99738.94;5118146;28;20050;-70
2021/12/05 09:38:37;;;;;;;154.73;57.45;;;;;;;7.59;58.62;99743.94;5122110;28;20051;-69
2021/12/05 09:39:26;;;;;;;132.75;51.95;;;;;;;7.09;59.79;99756.41;5121035;28;20047;-69
2021/12/05 09:53:28;;;;;;;143.82;55.78;;;;;;;7.94;57.60;99757.59;5053999;28;20072;-70
2021/12/05 10:15:17;;;;;;;134.43;54.65;;;;;;;8.16;57.02;99772.38;5051809;28;20071;-69
2021/12/05 10:38:29;;;;;;;138.02;52.80;;;;;;;8.82;55.55;99781.16;5116307;28;20006;-70
2021/12/05 10:43:45;;;;;;;117.95;51.90;;;;;;;8.72;56.19;99782.19;5114163;28;20075;-70
2021/12/05 10:46:16;;;;;;;126.50;53.75;;;;;;;8.93;55.72;99785.44;5115102;28;20056;-70
2021/12/05 10:48:47;;;;;;;124.15;51.38;;;;;;;9.07;55.59;99784.13;5116149;28;20040;-70
2021/12/05 10:51:18;;;;;;;116.70;50.92;;;;;;;9.12;55.43;99781.88;5115935;28;20472;-70
2021/12/05 10:53:53;;;;;;;114.30;50.17;;;;;;;9.22;55.18;99776.50;5114803;28;20067;-70
2021/12/05 10:56:26;;;;;;;117.18;51.00;;;;;;;9.19;55.01;99777.63;5112719;28;20474;-70
2021/12/05 10:59:08;;;;;;;114.30;51.13;;;;;;;9.05;54.49;99781.63;5077889;28;20098;-70
2021/12/05 11:01:42;;;;;;;111.32;50.47;;;;;;;9.01;55.25;99787.41;5105168;28;20082;-70
2021/12/05 11:04:12;;;;;;;123.13;52.22;;;;;;;9.01;54.95;99787.41;5076282;28;20509;-70
2021/12/05 11:06:52;;;;;;;112.53;51.03;;;;;;;8.85;55.36;99793.31;5094627;28;20048;-69
2021/12/05 11:09:24;;;;;;;127.15;52.40;;;;;;;7.91;57.73;99795.03;5095132;28;20048;-69
2021/12/05 11:11:58;;;;;;;113.82;48.78;;;;;;;8.42;56.70;99801.88;5095711;28;20442;-71
2021/12/05 11:14:28;;;;;;;114.03;50.88;;;;;;;8.48;56.58;99803.94;5095797;28;20135;-71
2021/12/05 11:16:59;;;;;;;112.88;49.20;;;;;;;8.37;56.94;99798.75;5094184;28;20439;-70
2021/12/05 11:19:46;;;;;;;120.90;52.72;;;;;;;8.52;56.30;99800.84;5094661;28;20083;-70
2021/12/05 11:22:18;;;;;;;133.57;54.20;;;;;;;8.56;56.09;99809.38;5093758;28;20502;-70
2021/12/05 11:25:00;;;;;;;130.68;53.47;;;;;;;8.91;55.23;99803.38;5093847;28;20545;-71
2021/12/05 11:27:33;;;;;;;131.60;53.03;;;;;;;9.01;54.78;99808.66;5095519;28;20044;-71
2021/12/05 11:30:10;;;;;;;126.88;52.20;;;;;;;9.03;54.63;99809.34;5095535;28;20043;-71
2021/12/05 11:32:45;;;;;;;115.45;50.88;;;;;;;9.08;54.76;99809.75;5094578;28;20109;-71
2021/12/05 11:35:21;;;;;;;120.00;51.95;;;;;;;9.01;55.00;99803.34;5077466;28;20067;-71
2021/12/05 11:38:05;;;;;;;117.53;50.28;;;;;;;9.05;54.91;99810.03;5094418;28;20040;-70
2021/12/05 11:41:06;;;;;;;128.77;53.83;;;;;;;9.14;54.86;99811.78;5093545;28;20407;-71
2021/12/05 11:43:43;;;;;;;120.88;53.28;;;;;;;9.18;54.48;99813.19;5094053;28;20035;-71
2021/12/05 11:46:11;;;;;;;120.90;52.60;;;;;;;8.92;54.90;99814.84;5095854;28;20044;-71
2021/12/05 11:49:02;;;;;;;129.73;53.10;;;;;;;8.72;55.88;99811.41;5094743;28;20090;-71
2021/12/05 11:51:32;;;;;;;115.85;50.20;;;;;;;8.98;55.24;99807.13;5104343;28;20436;-71
2021/12/05 11:54:33;;;;;;;118.88;50.60;;;;;;;8.94;55.25;99804.91;5105049;28;20051;-71
2021/12/05 11:57:18;;;;;;;126.85;50.35;;;;;;;9.12;55.14;99805.81;5110823;28;20036;-71
2021/12/05 11:59:52;;;;;;;135.35;52.38;;;;;;;9.11;54.72;99804.13;5093586;28;20484;-71
2021/12/05 12:02:28;;;;;;;130.98;53.72;;;;;;;9.19;54.68;99809.53;5093394;28;20044;-71
2021/12/05 12:05:07;;;;;;;114.85;50.17;;;;;;;9.26;54.50;99810.63;5093225;28;20093;-71
2021/12/05 12:07:49;;;;;;;122.03;51.63;;;;;;;9.18;54.81;99807.88;5093128;28;20036;-71
2021/12/05 12:10:21;;;;;;;119.20;50.30;;;;;;;9.27;54.90;99799.00;5079409;28;20052;-70
2021/12/05 12:12:51;;;;;;;120.15;51.58;;;;;;;9.22;54.72;99806.59;5094308;28;20117;-71
2021/12/05 12:15:19;;;;;;;123.75;50.88;;;;;;;9.24;54.81;99812.59;5094721;28;20127;-71
2021/12/05 12:17:48;;;;;;;129.77;51.50;;;;;;;9.33;54.53;99807.38;5086986;28;20048;-71
2021/12/05 12:20:23;;;;;;;124.82;54.13;;;;;;;9.33;54.66;99810.88;5094161;28;20051;-71
2021/12/05 12:22:51;;;;;;;139.20;56.55;;;;;;;9.35;54.66;99816.03;5094238;28;20048;-71
2021/12/05 12:25:21;;;;;;;135.60;54.80;;;;;;;9.47;54.55;99817.50;5094733;28;20071;-71
2021/12/05 12:27:49;;;;;;;130.50;54.47;;;;;;;9.39;54.60;99820.09;5092962;28;20322;-70
2021/12/05 12:30:24;;;;;;;131.25;53.00;;;;;;;9.50;54.40;99823.38;5105164;28;20109;-70
2021/12/05 12:33:10;;;;;;;125.93;52.22;;;;;;;9.52;54.50;99825.88;5096233;28;20040;-70
2021/12/05 12:35:38;;;;;;;126.57;53.88;;;;;;;9.43;54.88;99824.13;5093650;28;20040;-70
2021/12/05 12:38:14;;;;;;;121.80;53.30;;;;;;;9.22;55.36;99830.53;5094353;28;20051;-70
2021/12/05 12:40:43;;;;;;;135.07;53.80;;;;;;;9.43;55.16;99826.78;5095082;28;20132;-70
2021/12/05 12:43:35;;;;;;;127.03;51.83;;;;;;;9.48;54.85;99837.81;5094359;28;20048;-70
2021/12/05 12:46:36;;;;;;;122.00;51.00;;;;;;;9.41;54.95;99836.72;5074293;28;20052;-71
2021/12/05 12:49:14;;;;;;;120.73;53.17;;;;;;;9.45;54.75;99836.28;5102834;28;20051;-70
2021/12/05 12:51:50;;;;;;;114.00;49.72;;;;;;;9.60;54.36;99844.59;5093427;28;20067;-70
2021/12/05 12:54:29;;;;;;;117.38;50.08;;;;;;;9.59;54.38;99853.56;5114159;28;20403;-70
2021/12/05 12:57:15;;;;;;;110.93;50.03;;;;;;;9.61;54.29;99859.56;5118691;28;20455;-70
2021/12/05 13:00:08;;;;;;;113.25;51.03;;;;;;;9.57;54.43;99860.88;5116127;28;20066;-70
2021/12/05 13:02:57;;;;;;;115.38;49.70;;;;;;;9.42;54.46;99855.22;5100535;28;20072;-71
2021/12/05 13:11:04;;;;;;;121.25;54.60;;;;;;;7.72;58.65;99859.50;5095508;28;20060;-70
2021/12/05 13:13:33;;;;;;;130.15;55.88;;;;;;;7.68;58.79;99869.56;5094674;28;20064;-70
2021/12/05 13:16:16;;;;;;;138.98;56.95;;;;;;;7.68;58.61;99871.38;5094650;28;20147;-70
2021/12/05 13:18:49;;;;;;;133.07;57.97;;;;;;;7.89;57.85;99866.81;5077189;28;20492;-70
2021/12/05 13:21:28;;;;;;;127.10;53.97;;;;;;;8.02;57.36;99871.84;5099659;28;20067;-70
2021/12/05 13:23:55;;;;;;;136.10;57.50;;;;;;;7.73;58.18;99877.97;5097188;28;20498;-70
2021/12/05 13:26:42;;;;;;;132.52;56.65;;;;;;;8.21;56.95;99876.31;5109783;28;20483;-70
2021/12/05 13:29:14;;;;;;;132.15;55.47;;;;;;;7.64;58.68;99878.78;5107858;28;20040;-70
2021/12/05 13:32:02;;;;;;;124.28;52.03;;;;;;;7.65;58.27;99877.78;5098030;28;20055;-70
2021/12/05 13:34:44;;;;;;;127.75;55.92;;;;;;;7.84;57.35;99879.66;5099122;28;20051;-70
2021/12/05 13:37:13;;;;;;;129.95;55.58;;;;;;;8.22;56.55;99881.50;5097221;28;20060;-70
2021/12/05 13:39:44;;;;;;;138.27;58.22;;;;;;;8.31;56.58;99882.47;5114957;28;20437;-70
2021/12/05 13:42:14;;;;;;;140.90;59.53;;;;;;;8.71;55.85;99886.78;5098632;28;20418;-71
2021/12/05 13:44:59;;;;;;;140.98;58.88;;;;;;;8.73;55.81;99880.38;5096326;28;20040;-71
2021/12/05 13:47:29;;;;;;;140.13;58.28;;;;;;;8.36;55.88;99884.72;5096703;28;20476;-70
2021/12/05 13:49:57;;;;;;;140.32;60.10;;;;;;;8.55;55.57;99882.06;5096246;28;20444;-70
2021/12/05 13:52:32;;;;;;;139.73;59.72;;;;;;;8.63;54.92;99882.22;5095827;28;20499;-71
2021/12/05 13:55:42;;;;;;;139.52;59.17;;;;;;;9.08;54.48;99888.69;5096502;28;20072;-71
2021/12/05 13:58:22;;;;;;;131.88;59.17;;;;;;;9.10;54.49;99884.03;5112193;28;20043;-70
2021/12/05 14:01:04;;;;;;;128.38;55.42;;;;;;;8.75;55.17;99888.19;5116394;28;20134;-70
2021/12/05 14:03:51;;;;;;;;;;;;;;;9.01;54.48;99901.72;5097385;28;20059;-70
2021/12/05 14:06:47;;;;;;;117.57;54.00;;;;;;;8.81;54.64;99912.38;5106097;28;19923;-70
2021/12/05 14:09:13;;;;;;;120.43;54.20;;;;;;;8.76;54.80;99921.72;5116787;28;20127;-71
2021/12/05 14:11:54;;;;;;;122.18;56.88;;;;;;;8.85;54.83;99923.56;5116859;28;20040;-70
2021/12/05 14:14:27;;;;;;;119.38;55.63;;;;;;;8.67;54.74;99925.25;5116870;28;20046;-70
2021/12/05 14:16:57;;;;;;;123.57;53.67;;;;;;;7.97;56.65;99932.47;5115675;28;20135;-70
2021/12/05 14:19:28;;;;;;;119.03;54.05;;;;;;;8.42;55.77;99945.28;5118672;28;20052;-70
2021/12/05 14:21:58;;;;;;;125.07;55.90;;;;;;;7.66;57.38;99947.63;5117028;28;20059;-69
2021/12/05 14:24:32;;;;;;;112.82;51.10;;;;;;;7.54;57.59;99954.81;5117065;28;20059;-69
2021/12/05 14:27:04;;;;;;;118.70;52.00;;;;;;;7.35;57.68;99964.38;5116616;28;20418;-69
2021/12/05 14:29:33;;;;;;;112.70;49.15;;;;;;;7.17;57.84;99975.69;5113222;28;20064;-70
2021/12/05 14:32:07;;;;;;;118.63;52.28;;;;;;;7.75;57.50;99981.28;5100971;28;20079;-69
2021/12/05 14:34:34;;;;;;;118.10;53.58;;;;;;;8.06;56.33;99990.03;5115678;28;20044;-70
2021/12/05 14:37:08;;;;;;;112.40;52.20;;;;;;;8.22;55.55;100000.97;5116294;28;20070;-69
2021/12/05 14:39:40;;;;;;;110.97;52.25;;;;;;;8.28;55.78;100005.75;5116669;28;20097;-69
2021/12/05 14:42:17;;;;;;;115.38;53.78;;;;;;;8.47;55.04;100012.91;5115380;28;20552;-69
2021/12/05 14:44:47;;;;;;;120.30;54.55;;;;;;;8.47;54.59;100022.72;5116816;28;20100;-71
2021/12/05 14:47:17;;;;;;;114.97;51.25;;;;;;;7.62;56.17;100019.50;5114815;28;20121;-70
2021/12/05 14:49:58;;;;;;;115.38;52.90;;;;;;;7.11;57.69;100024.78;5117082;28;20452;-70
2021/12/05 14:52:33;;;;;;;113.70;52.30;;;;;;;6.56;59.01;100032.00;5116376;28;20124;-69
2021/12/05 14:55:02;;;;;;;116.63;51.83;;;;;;;6.27;59.93;100037.88;5116016;28;20101;-71
2021/12/05 14:57:32;;;;;;;119.95;51.50;;;;;;;6.31;59.83;100044.59;5115523;27;20058;-69
2021/12/05 15:00:04;;;;;;;124.00;52.45;;;;;;;6.45;59.51;100047.94;5113623;28;20482;-70
2021/12/05 15:02:33;;;;;;;134.50;54.20;;;;;;;6.53;59.62;100040.19;5113480;28;20047;-69
2021/12/05 15:05:00;;;;;;;121.65;54.33;;;;;;;6.06;60.77;100042.22;5112703;28;20039;-70
2021/12/05 15:07:28;;;;;;;121.70;53.95;;;;;;;6.45;59.83;100047.94;5111343;27;20044;-71
2021/12/05 15:09:57;;;;;;;126.18;54.53;;;;;;;7.30;57.95;100048.75;5115778;28;20032;-70
2021/12/05 15:12:30;;;;;;;120.43;53.45;;;;;;;7.09;57.92;100064.66;5115851;28;20068;-69
2021/12/05 15:15:01;;;;;;;121.20;53.65;;;;;;;7.12;57.58;100064.41;5114163;28;20518;-69
2021/12/05 15:17:38;;;;;;;117.65;53.05;;;;;;;7.60;57.28;100058.56;5115538;28;20088;-69
2021/12/05 15:20:07;;;;;;;115.47;52.38;;;;;;;7.44;57.66;100060.00;5097116;28;20120;-69
2021/12/05 15:22:41;;;;;;;115.03;53.03;;;;;;;7.16;57.53;100072.94;5116417;28;20043;-70
2021/12/05 15:25:12;;;;;;;108.60;47.45;;;;;;;6.91;57.03;100072.31;5117273;28;20069;-71
2021/12/05 15:27:43;;;;;;;111.80;50.67;;;;;;;7.00;57.27;100069.91;5117643;28;20043;-71
2021/12/05 15:30:42;;;;;;;105.90;49.20;;;;;;;7.21;56.56;100068.09;5103661;27;20043;-71
2021/12/05 15:33:14;;;;;;;112.57;48.15;;;;;;;7.31;56.64;100063.72;5125060;27;20044;-71
2021/12/05 15:35:44;;;;;;;108.32;49.38;;;;;;;7.33;56.51;100066.22;5122006;27;20051;-71
2021/12/05 15:38:15;;;;;;;107.15;49.55;;;;;;;6.74;58.02;100059.63;5112865;27;20051;-71
2021/12/05 15:40:45;;;;;;;107.25;50.22;;;;;;;7.00;57.79;100060.13;5120136;27;20490;-71
2021/12/05 15:43:14;;;;;;;109.25;50.25;;;;;;;7.10;56.75;100062.84;5111311;27;20151;-71
2021/12/05 15:45:43;;;;;;;109.95;49.53;;;;;;;7.04;57.06;100066.84;5114784;28;20043;-69
2021/12/05 15:48:09;;;;;;;112.57;51.47;;;;;;;7.13;57.44;100070.53;5116214;28;20083;-70
2021/12/05 15:50:39;;;;;;;105.65;49.33;;;;;;;7.32;56.76;100080.44;5114313;28;20040;-70
2021/12/05 15:53:10;;;;;;;112.28;50.05;;;;;;;7.08;57.20;100084.19;5116356;28;20528;-69
2021/12/05 15:55:44;;;;;;;112.18;47.35;;;;;;;6.67;57.88;100077.81;5114541;28;20043;-70
2021/12/05 15:58:18;;;;;;;107.93;48.22;;;;;;;6.32;59.55;100087.78;5086565;28;20067;-69
2021/12/05 16:00:58;;;;;;;107.32;49.05;;;;;;;6.57;58.76;100086.63;5113955;28;20066;-69
2021/12/05 16:03:37;;;;;;;112.07;50.53;;;;;;;6.93;58.17;100096.06;5114798;28;20049;-69
2021/12/05 16:06:07;;;;;;;114.00;50.78;;;;;;;7.18;56.58;100094.84;5113314;28;20067;-70
2021/12/05 16:08:34;;;;;;;113.93;50.35;;;;;;;6.72;58.85;100103.09;5113844;28;20078;-70
2021/12/05 16:11:02;;;;;;;108.22;48.47;;;;;;;6.54;58.75;100094.81;5114331;28;20445;-69
2021/12/05 16:13:38;;;;;;;110.60;49.22;;;;;;;7.16;57.84;100104.72;5115108;28;20059;-69
2021/12/05 16:16:23;;;;;;;106.43;47.67;;;;;;;6.62;58.32;100105.66;5113944;28;20055;-70
2021/12/05 16:18:52;;;;;;;112.72;48.38;;;;;;;7.02;58.20;100105.88;5115240;28;20056;-69
2021/12/05 16:21:29;;;;;;;112.05;49.45;;;;;;;6.73;58.07;100100.31;5115265;28;20074;-69
2021/12/05 16:24:07;;;;;;;103.18;47.95;;;;;;;6.46;58.60;100108.69;5115825;28;20039;-69
2021/12/05 16:26:35;;;;;;;104.20;47.28;;;;;;;6.01;60.38;100110.53;5114320;28;20094;-69
2021/12/05 16:29:11;;;;;;;107.88;46.78;;;;;;;6.22;60.10;100114.13;5114571;28;20122;-70
2021/12/05 16:31:41;;;;;;;113.30;48.33;;;;;;;6.42;59.02;100112.56;5118748;28;20051;-69